Main page
METAR-TAF:

METAR-TAF

Airports :

Current weather observation

The report was made 56 minutes ago, at 06:00 UTC
Wind 24 kt from the North
Temperature -5°C
Humidity 79%
Pressure 1034 hPa
Visibility: 8000 m
Broken clouds at a height of 10000 ft

METAR: LBWB 080600Z 35024KT 8000 BKN100 M05/M08 Q1034

Time: 06:56 (06:56 UTC)


TAF: missing

Weather observations and forecasts of more than 4000 airports (METAR and TAF reports).

The available stations are represented by yellow and red dots on the map.

Hover mouse over dot to see the name of the station.

Then click to see weather observations and forecasts.

To change the map : click on the green buttons with a black cross to zoom in, on the green button with a dash to zoom out, or on the green arrows for adjacent maps.


METAR-TAF: